Etusivu
METAR-TAF:

METAR-TAF

Lentoasemat :

Almería, Espanja

Leveyspiiri: 36-51N, Pituuspiiri: 002-23W, korkeus merenpinnasta: 15 m

Tämänhetkinen sää

Tämä raportti tehtiin 28 minuuttia sitten, kello 00.00 UTC
Tuuli 3 kn idästä/kaakosta, vaihdellen idän ja etelän/kaakon välillä
Lämpötila 18°C
Kosteus 83%
Ilmanpaine 1019 hPa
Näkyvyys 10 km tai enemmän
ei pilviä alle 1500 m:ssä eikä cumulonimbus-pilviä

METAR: LEAM 180000Z AUTO 12003KT 080V150 CAVOK 18/15 Q1019

Aika: 02:28 (00:28 UTC)

Sääennuste

Tämä raportti tehtiin 1 tunti ja 28 minuuttia sitten, kello 23.00 UTC
Ennuste voimassa 18. päivästä klo 00 UTC - 18. päivään klo 24 UTC
Tuuli 8 kn koillisesta
Näkyvyys 10 km tai enemmän
Muutamia pilviä 2000 ft:n korkeudessa
Tulossa
18. päivästä klo 08 UTC - 18. päivään klo 10 UTC
Tuuli 10 kn etelästä

TAF: LEAM 172300Z 1800/1824 05008KT 9999 FEW020 TX24/1813Z TN16/1805Z BECMG 1808/1810 19010KT

Säähavainnot ja -ennusteet yli 4000 lentoasemalta (METAR- ja TAF-raportit).

Käytössä olevat sääasemat on merkitty karttaan keltaisilla ja punaisilla pisteillä.

Aseta hiiri pisteen päälle nähdäksesi sääaseman nimen.

Klikkaa sitten nähdäksesi säähavainnot ja -ennusteet.

Kartan vaihtaminen: klikkaa mustalla rastilla varustettuja vihreitä pisteitä, niin voit zoomata sisään; viivalla varustettua vihreää pistettä, niin voit zoomata ulos tai vihreitä nuolia, niin pääset viereisille kartoille.


METAR-TAF: